createdAt,value
2022-09-16T00:41:19.790Z,69.23
2022-09-16T00:44:51.063Z,67.92
2022-09-16T02:53:03.018Z,66.31
2022-09-16T02:56:06.346Z,66.83
2022-09-16T03:48:07.321Z,63.12
2022-09-16T03:57:19.882Z,64.78
2022-09-16T04:00:08.189Z,63.91
2022-09-16T04:06:04.213Z,64.67
2022-09-16T04:08:53.845Z,64.77
2022-09-16T05:54:23.487Z,61.94
2022-09-16T05:57:04.544Z,62.53
2022-09-16T06:00:59.482Z,61.89
2022-09-16T06:04:07.356Z,61.62
2022-09-16T06:06:55.957Z,61.71
2022-09-16T06:09:46.139Z,61.61
2022-09-16T06:16:45.764Z,61.51
2022-09-16T06:19:53.505Z,61.74
2022-09-16T06:22:42.818Z,60.81
2022-09-16T06:25:37.079Z,60.37
2022-09-16T06:28:52.248Z,60.94
2022-09-16T06:32:32.187Z,61.10
2022-09-16T06:35:34.376Z,60.46
2022-09-16T06:42:05.260Z,60.17
2022-09-16T06:45:16.587Z,60.68
2022-09-16T06:48:06.155Z,59.81
2022-09-16T06:50:38.988Z,60.20
2022-09-16T06:53:13.089Z,60.62
2022-09-16T06:55:55.340Z,59.95
2022-09-16T06:58:50.308Z,60.07
2022-09-16T07:05:39.448Z,59.88
2022-09-16T07:08:29.997Z,59.21
2022-09-16T07:11:20.345Z,59.41
2022-09-16T07:13:57.574Z,58.64
2022-09-16T07:16:31.608Z,59.55
2022-09-16T07:19:09.533Z,59.24
2022-09-16T07:21:46.135Z,58.83
2022-09-16T07:24:23.689Z,58.94
2022-09-16T07:30:26.824Z,58.87
2022-09-16T07:38:11.776Z,58.44
2022-09-16T07:41:46.565Z,59.00
2022-09-16T07:44:13.003Z,58.95
2022-09-16T07:47:42.419Z,58.96
2022-09-16T07:50:32.653Z,58.34
2022-09-16T07:53:24.192Z,58.13
2022-09-16T07:56:20.918Z,57.88
2022-09-16T07:59:24.465Z,57.17
2022-09-16T08:02:12.246Z,57.14
2022-09-16T08:05:23.398Z,57.01
2022-09-16T08:08:21.420Z,56.59
2022-09-16T08:11:11.870Z,56.45
2022-09-16T08:17:19.690Z,56.06
2022-09-16T08:20:00.924Z,55.74
2022-09-16T08:22:48.075Z,56.14
2022-09-16T08:25:42.650Z,55.92
2022-09-16T08:28:35.804Z,55.47
2022-09-16T08:32:17.266Z,54.95
2022-09-16T08:34:42.435Z,54.91
2022-09-16T08:37:50.179Z,55.42
2022-09-16T08:40:53.154Z,55.34
2022-09-16T08:44:01.597Z,55.18
2022-09-16T08:46:46.206Z,54.80
2022-09-16T08:49:22.977Z,54.66
2022-09-16T08:52:23.083Z,53.92
2022-09-16T08:55:01.068Z,53.87
2022-09-16T08:59:07.568Z,53.46
2022-09-16T09:01:47.048Z,52.57
2022-09-16T09:04:25.093Z,52.48
2022-09-16T09:11:01.624Z,53.92
2022-09-16T09:14:37.726Z,55.79
2022-09-16T09:17:17.981Z,55.86
2022-09-16T09:20:16.661Z,56.19
2022-09-16T09:23:16.259Z,55.24
2022-09-16T09:25:59.351Z,55.15
2022-09-16T09:28:43.218Z,55.97
2022-09-16T09:31:31.271Z,55.93
2022-09-16T09:34:20.571Z,56.31
2022-09-16T09:37:25.311Z,55.37
2022-09-16T09:40:31.539Z,54.68
2022-09-16T09:43:17.494Z,54.47
2022-09-16T09:45:53.430Z,54.24
2022-09-16T09:48:25.217Z,53.53
2022-09-16T09:51:07.678Z,52.91
2022-09-16T09:53:53.476Z,52.09
2022-09-16T09:56:29.230Z,51.87
2022-09-16T09:59:31.073Z,51.37
2022-09-16T10:02:01.305Z,50.69
2022-09-16T10:04:38.661Z,48.92
2022-09-16T10:07:07.260Z,48.63
2022-09-16T10:09:36.791Z,48.77
2022-09-16T10:12:05.782Z,47.72
2022-09-16T10:14:38.215Z,47.68
2022-09-16T10:17:15.845Z,47.38
2022-09-16T10:19:58.903Z,46.72
2022-09-16T10:22:35.333Z,46.29
2022-09-16T10:25:24.605Z,47.12
2022-09-16T10:28:00.264Z,47.69
2022-09-16T10:30:44.028Z,47.64
2022-09-16T10:33:17.283Z,47.93
2022-09-16T10:36:07.810Z,48.54
2022-09-16T10:38:42.239Z,48.06
2022-09-16T10:41:36.358Z,47.17
2022-09-16T10:44:34.904Z,47.17
2022-09-16T10:47:38.079Z,48.08
2022-09-16T10:50:32.445Z,47.47
2022-09-16T10:53:48.574Z,47.13
2022-09-16T11:00:47.787Z,47.11
2022-09-16T11:04:05.502Z,47.22
2022-09-16T11:07:10.895Z,46.94
2022-09-16T11:09:54.478Z,48.11
2022-09-16T11:12:36.672Z,47.70
2022-09-16T11:15:45.242Z,47.43
2022-09-16T11:18:58.201Z,47.49
2022-09-16T11:21:57.290Z,47.72
2022-09-16T11:24:43.812Z,47.36
2022-09-16T11:28:29.098Z,45.45
2022-09-16T11:31:16.006Z,44.80
2022-09-16T11:34:19.117Z,44.49
2022-09-16T11:36:51.772Z,45.30
2022-09-16T11:39:36.264Z,44.66
2022-09-16T11:42:35.269Z,45.16
2022-09-16T11:45:54.006Z,44.74
2022-09-16T11:50:29.597Z,45.88
2022-09-16T11:52:39.476Z,45.10
2022-09-16T11:55:48.940Z,43.08
2022-09-16T11:59:18.710Z,42.94
2022-09-16T12:06:09.397Z,44.31
2022-09-16T12:09:48.872Z,44.45
2022-09-16T12:11:57.711Z,43.44
2022-09-16T12:15:21.919Z,45.00
2022-09-16T12:20:40.690Z,43.09
2022-09-16T12:23:32.490Z,44.00
2022-09-16T12:26:27.297Z,43.80
2022-09-16T12:29:13.524Z,43.50
2022-09-16T12:32:16.911Z,41.91
2022-09-16T12:34:59.512Z,42.09
2022-09-16T12:40:55.928Z,42.12
2022-09-16T12:44:02.212Z,42.21
2022-09-16T12:46:55.421Z,43.27
2022-09-16T12:49:42.542Z,43.92
2022-09-16T12:52:12.708Z,44.70
2022-09-16T12:55:17.057Z,45.20
2022-09-16T12:58:22.918Z,45.37
2022-09-16T13:01:15.854Z,44.58
2022-09-16T13:03:58.728Z,42.73
2022-09-16T13:06:38.116Z,43.48
2022-09-16T13:09:23.709Z,43.61
2022-09-16T13:15:09.433Z,44.30
2022-09-16T13:17:39.195Z,45.93
2022-09-16T13:24:11.060Z,44.42
2022-09-16T13:26:46.400Z,43.72
2022-09-16T13:29:47.446Z,44.16
2022-09-16T13:32:42.779Z,45.51
2022-09-16T13:35:43.508Z,45.74
2022-09-16T13:38:24.910Z,46.08
2022-09-16T13:41:14.177Z,46.24
2022-09-16T13:43:54.652Z,45.16
2022-09-16T13:46:28.802Z,45.38
2022-09-16T13:49:04.373Z,45.43
2022-09-16T13:51:36.969Z,45.90
2022-09-16T13:54:24.258Z,45.96
2022-09-16T13:57:16.836Z,45.48
2022-09-16T13:59:50.425Z,47.74
2022-09-16T14:02:32.452Z,47.30
2022-09-16T14:05:17.441Z,46.46
2022-09-16T14:07:52.585Z,46.58
2022-09-16T14:10:56.231Z,46.45
2022-09-16T14:13:31.319Z,47.42
2022-09-16T14:16:01.068Z,48.12
2022-09-16T14:18:32.841Z,48.27
2022-09-16T14:21:01.871Z,48.45
2022-09-16T14:23:33.750Z,48.87
2022-09-16T14:26:16.411Z,49.85
2022-09-16T14:28:44.812Z,50.28
2022-09-16T14:31:17.160Z,49.79
2022-09-16T14:33:56.537Z,50.39
2022-09-16T14:36:39.023Z,51.15
2022-09-16T14:39:06.755Z,52.35
2022-09-16T14:41:45.127Z,50.98
2022-09-16T14:44:19.425Z,51.70
2022-09-16T14:47:29.392Z,51.57
2022-09-16T14:50:05.754Z,50.98
2022-09-16T14:52:36.041Z,52.01
2022-09-16T14:55:19.572Z,51.50
2022-09-16T14:57:50.629Z,51.84
2022-09-16T15:12:09.343Z,51.42
2022-09-16T15:40:38.691Z,50.60
2022-09-16T16:41:05.715Z,52.80
2022-09-16T16:44:23.329Z,54.01
2022-09-16T16:47:31.749Z,53.19
2022-09-16T16:51:29.630Z,52.90
2022-09-16T17:11:47.774Z,52.96
2022-09-16T17:15:18.137Z,52.62
2022-09-16T17:58:52.635Z,54.45
2022-09-16T18:05:20.529Z,53.54
2022-09-16T18:11:58.727Z,52.60
2022-09-16T18:15:42.644Z,52.63
2022-09-16T18:18:40.793Z,52.82
2022-09-16T18:38:14.467Z,52.54
2022-09-16T18:40:57.327Z,52.43
2022-09-16T18:45:15.372Z,53.39
2022-09-16T18:48:46.339Z,54.46
2022-09-16T18:52:21.207Z,57.29
2022-09-16T18:56:09.924Z,56.92
2022-09-16T19:06:44.986Z,54.92
2022-09-16T19:10:16.174Z,54.56
2022-09-16T19:17:38.267Z,57.54
2022-09-16T19:22:08.983Z,56.25
2022-09-16T19:24:29.546Z,56.30
2022-09-16T19:45:02.084Z,57.23
2022-09-16T19:47:51.665Z,58.00
2022-09-16T19:50:42.232Z,57.66
2022-09-16T19:53:29.305Z,57.90
2022-09-16T19:56:22.914Z,58.14
2022-09-16T19:59:12.376Z,57.47
2022-09-16T20:01:51.360Z,57.78
2022-09-16T20:04:40.309Z,57.49
2022-09-16T20:07:12.792Z,59.28
2022-09-16T20:10:21.817Z,58.23
2022-09-16T20:12:57.301Z,58.48
2022-09-16T20:15:49.723Z,57.69
2022-09-16T20:18:18.836Z,57.59
2022-09-16T20:31:46.187Z,57.31
2022-09-16T20:35:36.920Z,57.22
2022-09-16T20:43:01.338Z,59.17
2022-09-16T20:50:01.895Z,59.03
2022-09-16T20:53:56.002Z,58.96
2022-09-16T20:57:26.243Z,59.51
2022-09-16T21:12:28.327Z,60.24
2022-09-16T21:16:23.924Z,60.19
2022-09-16T21:19:14.624Z,61.73
2022-09-16T21:34:10.876Z,66.08
2022-09-16T22:47:05.058Z,66.18
2022-09-16T22:49:41.821Z,66.44
2022-09-16T22:52:13.640Z,65.92
2022-09-16T22:55:23.801Z,66.03
2022-09-16T22:57:58.161Z,65.57
2022-09-16T23:00:30.268Z,66.13
2022-09-16T23:03:03.496Z,65.51
2022-09-16T23:05:55.239Z,65.18
2022-09-16T23:08:27.226Z,64.83
2022-09-16T23:11:38.311Z,64.84
2022-09-16T23:14:19.748Z,65.17
2022-09-16T23:17:09.412Z,65.76
2022-09-16T23:19:39.306Z,65.66
2022-09-16T23:22:12.746Z,65.29
2022-09-16T23:24:43.660Z,65.62
2022-09-16T23:27:37.037Z,65.95
2022-09-16T23:30:27.131Z,65.59
2022-09-16T23:33:18.245Z,65.61
2022-09-16T23:35:52.224Z,66.50
2022-09-16T23:38:49.441Z,66.09
2022-09-16T23:41:39.097Z,66.90
2022-09-16T23:44:42.211Z,67.92
2022-09-16T23:47:13.490Z,67.95
2022-09-16T23:50:06.335Z,68.17
2022-09-16T23:52:56.952Z,67.99
2022-09-16T23:56:09.003Z,67.68
2022-09-16T23:58:43.566Z,68.16
